Time;durP1;ratioP1;P1;durP2;ratioP2;P2;SDS_P1;SDS_P2;PMS_P1;PMS_P2;Temp;Humidity;BMP_temperature;BMP_pressure;BME280_temperature;BME280_humidity;BME280_pressure;Samples;Min_cycle;Max_cycle;Signal;HPM_P1;HPM_P2
2023/03/16 00:01:06;;;;;;;6.17;4.83;;;1.70;99.90;;;;;;5014564;28;20255;-85
2023/03/16 00:03:32;;;;;;;9.30;4.80;;;1.60;99.90;;;;;;4997107;28;20185;-85
2023/03/16 00:05:58;;;;;;;6.97;3.60;;;1.60;99.90;;;;;;4996549;28;20573;-84
2023/03/16 00:08:23;;;;;;;10.60;5.37;;;1.60;99.90;;;;;;4993557;28;20229;-85
2023/03/16 00:10:52;;;;;;;7.90;4.20;;;1.50;99.90;;;;;;4994837;28;20186;-83
2023/03/16 00:13:23;;;;;;;7.67;3.60;;;1.50;99.90;;;;;;4994558;28;20217;-83
2023/03/16 00:15:57;;;;;;;8.33;5.00;;;1.50;99.90;;;;;;4994698;28;20622;-83
2023/03/16 00:18:28;;;;;;;7.83;3.73;;;1.50;99.90;;;;;;4954878;28;20191;-85
2023/03/16 00:20:57;;;;;;;6.67;3.80;;;1.50;99.90;;;;;;4955762;28;20175;-83
2023/03/16 00:23:26;;;;;;;9.10;4.43;;;1.50;99.90;;;;;;4955754;28;20181;-83
2023/03/16 00:26:04;;;;;;;9.73;4.60;;;1.40;99.90;;;;;;4970083;28;20216;-83
2023/03/16 00:28:34;;;;;;;10.97;4.43;;;1.40;99.90;;;;;;4987099;28;20202;-83
2023/03/16 00:31:07;;;;;;;8.33;3.77;;;1.40;99.90;;;;;;4955736;28;20194;-83
2023/03/16 00:33:36;;;;;;;5.20;2.80;;;1.40;99.90;;;;;;4986794;28;20213;-84
2023/03/16 00:36:04;;;;;;;11.43;5.50;;;1.50;99.90;;;;;;4955485;29;20646;-84
2023/03/16 00:38:35;;;;;;;6.53;3.53;;;1.40;99.90;;;;;;4970410;28;20179;-83
2023/03/16 00:41:06;;;;;;;8.53;4.00;;;1.40;99.90;;;;;;4955117;28;20710;-83
2023/03/16 00:43:39;;;;;;;7.10;3.47;;;1.40;99.90;;;;;;4970501;28;20545;-84
2023/03/16 00:46:07;;;;;;;4.53;3.67;;;1.40;99.90;;;;;;4955377;28;20666;-83
2023/03/16 00:48:34;;;;;;;12.90;5.93;;;1.40;99.90;;;;;;4960074;28;20204;-83
2023/03/16 00:51:05;;;;;;;13.03;3.77;;;1.40;99.90;;;;;;4974318;28;20236;-83
2023/03/16 00:53:33;;;;;;;6.03;3.70;;;1.40;99.90;;;;;;4974588;28;20186;-83
2023/03/16 00:56:01;;;;;;;7.73;3.57;;;1.40;99.90;;;;;;4972934;28;20192;-83
2023/03/16 00:58:27;;;;;;;6.30;3.60;;;1.40;99.90;;;;;;4974588;28;20206;-83
2023/03/16 01:00:54;;;;;;;7.00;4.03;;;1.30;99.90;;;;;;4974389;28;20208;-82
2023/03/16 01:03:19;;;;;;;5.40;3.20;;;1.30;99.90;;;;;;5005960;28;20248;-83
2023/03/16 01:05:45;;;;;;;10.27;3.50;;;1.30;99.90;;;;;;4988922;28;20575;-83
2023/03/16 01:08:11;;;;;;;7.37;3.77;;;1.30;99.90;;;;;;4989445;28;20178;-82
2023/03/16 01:10:37;;;;;;;9.13;4.40;;;1.20;99.90;;;;;;4972933;28;20656;-83
2023/03/16 01:13:03;;;;;;;12.20;4.50;;;1.30;99.90;;;;;;4989188;28;20195;-83
2023/03/16 01:15:33;;;;;;;6.20;4.10;;;1.20;99.90;;;;;;4973130;28;20196;-83
2023/03/16 01:17:59;;;;;;;5.70;3.37;;;1.20;99.90;;;;;;5008295;28;20235;-83
2023/03/16 01:20:25;;;;;;;10.63;5.10;;;1.20;99.90;;;;;;4993821;28;20183;-83
2023/03/16 01:22:51;;;;;;;22.20;5.13;;;1.30;99.90;;;;;;4992433;28;20190;-83
2023/03/16 01:25:17;;;;;;;8.70;5.03;;;1.30;99.90;;;;;;4992691;28;20292;-82
2023/03/16 01:27:43;;;;;;;5.70;3.63;;;1.20;99.90;;;;;;4993779;28;20190;-82
2023/03/16 01:30:11;;;;;;;8.47;5.23;;;1.20;99.90;;;;;;4998402;28;20597;-83
2023/03/16 01:32:38;;;;;;;7.07;3.60;;;1.20;99.90;;;;;;5000316;28;20184;-82
2023/03/16 01:35:05;;;;;;;7.23;4.30;;;1.10;99.90;;;;;;4998647;28;20186;-83
2023/03/16 01:37:31;;;;;;;10.57;5.07;;;1.10;99.90;;;;;;4982375;28;20208;-83
2023/03/16 01:39:57;;;;;;;9.43;5.43;;;1.10;99.90;;;;;;4998483;28;20621;-82
2023/03/16 01:42:23;;;;;;;8.73;4.53;;;1.00;99.90;;;;;;4999886;28;20181;-83
2023/03/16 01:45:04;;;;;;;18.63;4.40;;;1.00;99.90;;;;;;4998395;28;20292;-83
2023/03/16 01:47:36;;;;;;;16.53;5.37;;;1.00;99.90;;;;;;4998944;28;20198;-83
2023/03/16 01:50:04;;;;;;;8.10;3.67;;;1.00;99.90;;;;;;4999630;28;20537;-83
2023/03/16 01:52:35;;;;;;;8.97;4.40;;;1.00;99.90;;;;;;4999751;28;20186;-83
2023/03/16 01:55:07;;;;;;;6.70;3.67;;;1.00;99.90;;;;;;4999870;28;20174;-83
2023/03/16 01:57:41;;;;;;;7.03;4.57;;;1.00;99.90;;;;;;5000287;28;20183;-84
2023/03/16 02:00:20;;;;;;;9.13;3.60;;;1.00;99.90;;;;;;4999726;28;20175;-83
2023/03/16 02:02:53;;;;;;;10.20;5.83;;;1.00;99.90;;;;;;4998798;28;20281;-83
2023/03/16 02:05:35;;;;;;;8.67;4.90;;;1.00;99.90;;;;;;4999829;28;20205;-82
2023/03/16 02:08:02;;;;;;;9.33;5.23;;;1.00;99.90;;;;;;4999533;28;20182;-82
2023/03/16 02:10:28;;;;;;;12.20;4.67;;;0.90;99.90;;;;;;4998522;28;20229;-82
2023/03/16 02:12:54;;;;;;;7.07;4.23;;;0.90;99.90;;;;;;4999341;28;20174;-82
2023/03/16 02:15:20;;;;;;;10.87;4.47;;;0.90;99.90;;;;;;4999772;28;20177;-82
2023/03/16 02:17:47;;;;;;;15.20;5.83;;;1.00;99.90;;;;;;5014615;28;20232;-82
2023/03/16 02:20:29;;;;;;;7.53;3.77;;;1.00;99.90;;;;;;5019119;28;20184;-82
2023/03/16 02:22:54;;;;;;;14.70;6.50;;;1.00;99.90;;;;;;5019232;28;20516;-82
2023/03/16 02:25:43;;;;;;;9.23;3.87;;;1.00;99.90;;;;;;4985250;28;20206;-82
2023/03/16 02:28:29;;;;;;;13.10;4.57;;;1.00;99.90;;;;;;5018322;28;20205;-82
2023/03/16 02:30:56;;;;;;;15.53;6.50;;;0.90;99.90;;;;;;5001440;28;20188;-82
2023/03/16 02:33:23;;;;;;;6.43;4.33;;;0.90;99.90;;;;;;5019615;28;20177;-82
2023/03/16 02:35:48;;;;;;;8.73;4.93;;;0.90;99.90;;;;;;5001373;28;20196;-82
2023/03/16 02:38:14;;;;;;;6.87;4.53;;;0.90;99.90;;;;;;5001221;28;20189;-82
2023/03/16 02:40:42;;;;;;;12.60;4.97;;;0.80;99.90;;;;;;4998894;28;20193;-82
2023/03/16 02:43:17;;;;;;;14.93;5.17;;;0.80;99.90;;;;;;5015849;28;20181;-82
2023/03/16 02:45:55;;;;;;;8.53;4.17;;;0.80;99.90;;;;;;5016040;28;20259;-82
2023/03/16 02:48:49;;;;;;;8.27;4.10;;;0.90;99.90;;;;;;5015887;28;20189;-82
2023/03/16 02:51:14;;;;;;;6.00;4.83;;;0.90;99.90;;;;;;4997348;28;20189;-82
2023/03/16 02:53:40;;;;;;;10.70;6.10;;;0.90;99.90;;;;;;4982382;28;20196;-82
2023/03/16 02:56:06;;;;;;;10.07;4.67;;;0.90;99.90;;;;;;4997890;28;20644;-82
2023/03/16 02:58:32;;;;;;;8.03;3.80;;;0.80;99.90;;;;;;4997944;28;20189;-83
2023/03/16 03:00:58;;;;;;;8.30;4.90;;;0.80;99.90;;;;;;4997831;28;20188;-83
2023/03/16 03:03:24;;;;;;;10.57;5.07;;;0.70;99.90;;;;;;5015547;28;20189;-82
2023/03/16 03:05:49;;;;;;;6.73;4.17;;;0.60;99.90;;;;;;4997935;28;20588;-82
2023/03/16 03:08:15;;;;;;;12.33;4.80;;;0.70;99.90;;;;;;5015561;28;20189;-83
2023/03/16 03:10:41;;;;;;;12.23;5.50;;;0.70;99.90;;;;;;4981779;28;20185;-83
2023/03/16 03:13:07;;;;;;;16.13;5.70;;;0.70;99.90;;;;;;5002069;28;20200;-83
2023/03/16 03:15:33;;;;;;;12.63;4.83;;;0.60;99.90;;;;;;5034921;28;20195;-83
2023/03/16 03:17:59;;;;;;;7.80;4.33;;;0.60;99.90;;;;;;5017055;28;20232;-83
2023/03/16 03:20:25;;;;;;;9.27;5.10;;;0.50;99.90;;;;;;5017436;28;20180;-83
2023/03/16 03:22:51;;;;;;;13.17;5.40;;;0.50;99.90;;;;;;5001277;28;20180;-82
2023/03/16 03:25:19;;;;;;;12.13;5.10;;;0.50;99.90;;;;;;5018322;28;20213;-83
2023/03/16 03:27:46;;;;;;;9.70;5.13;;;0.50;99.90;;;;;;4978401;28;20197;-83
2023/03/16 03:30:15;;;;;;;9.00;5.23;;;0.40;99.90;;;;;;4977999;28;20232;-83
2023/03/16 03:32:42;;;;;;;7.47;4.80;;;0.30;99.90;;;;;;4995871;28;20181;-83
2023/03/16 03:35:11;;;;;;;10.33;4.43;;;0.30;99.90;;;;;;4995525;28;20185;-83
2023/03/16 03:37:38;;;;;;;12.57;5.50;;;0.30;99.90;;;;;;4978720;28;20182;-82
2023/03/16 03:40:04;;;;;;;12.90;5.57;;;0.30;99.90;;;;;;5001939;28;20658;-83
2023/03/16 03:42:30;;;;;;;6.93;4.57;;;0.30;99.90;;;;;;5012728;28;20228;-83
2023/03/16 03:44:56;;;;;;;11.63;5.80;;;0.20;99.90;;;;;;4997600;28;20215;-82
2023/03/16 03:47:21;;;;;;;10.73;5.50;;;0.20;99.90;;;;;;4997590;28;20505;-83
2023/03/16 03:49:47;;;;;;;10.37;3.93;;;0.20;99.90;;;;;;4997602;28;20208;-82
2023/03/16 03:52:13;;;;;;;10.60;5.40;;;0.20;99.90;;;;;;4997025;28;20187;-82
2023/03/16 03:54:39;;;;;;;17.77;5.70;;;0.20;99.90;;;;;;4983979;28;20194;-82
2023/03/16 03:57:05;;;;;;;5.60;4.23;;;0.20;99.90;;;;;;4961966;28;20232;-83
2023/03/16 03:59:30;;;;;;;16.73;6.17;;;0.10;99.90;;;;;;4979356;28;20186;-83
2023/03/16 04:01:56;;;;;;;12.87;5.10;;;0.10;99.90;;;;;;5000730;28;20201;-82
2023/03/16 04:04:22;;;;;;;11.30;4.90;;;0.10;99.90;;;;;;5005593;28;20213;-83
2023/03/16 04:06:47;;;;;;;9.40;5.10;;;0.10;99.90;;;;;;5022542;28;20165;-81
2023/03/16 04:09:13;;;;;;;7.80;4.10;;;0.10;99.90;;;;;;5029194;28;20178;-82
2023/03/16 04:11:39;;;;;;;11.83;6.30;;;0.10;99.90;;;;;;5015234;28;20186;-82
2023/03/16 04:14:05;;;;;;;10.97;4.37;;;0.10;99.90;;;;;;4994647;28;20185;-82
2023/03/16 04:16:31;;;;;;;11.30;5.60;;;0.10;99.90;;;;;;5014397;28;20232;-82
2023/03/16 04:18:57;;;;;;;9.23;5.80;;;0.10;99.90;;;;;;5016908;28;20694;-83
2023/03/16 04:21:23;;;;;;;7.23;5.47;;;0.10;99.90;;;;;;5021056;28;20184;-82
2023/03/16 04:23:53;;;;;;;7.83;5.97;;;0.10;99.90;;;;;;5039106;28;20169;-82
2023/03/16 04:26:19;;;;;;;7.83;4.70;;;0.10;99.90;;;;;;5026194;28;20222;-82
2023/03/16 04:28:46;;;;;;;14.20;5.57;;;0.00;99.90;;;;;;5021516;28;20191;-83
2023/03/16 04:31:12;;;;;;;9.73;5.10;;;-0.10;99.90;;;;;;5022333;28;20642;-82
2023/03/16 04:33:39;;;;;;;10.17;6.03;;;-0.10;99.90;;;;;;4996839;28;20177;-82
2023/03/16 04:36:06;;;;;;;16.50;6.83;;;-0.10;99.90;;;;;;4996705;28;20666;-82
2023/03/16 04:38:32;;;;;;;24.00;6.23;;;-0.10;99.90;;;;;;4979019;28;20192;-82
2023/03/16 04:41:01;;;;;;;9.57;5.00;;;-0.20;99.90;;;;;;5013189;28;20184;-83
2023/03/16 04:43:28;;;;;;;10.70;5.07;;;-0.20;99.90;;;;;;4996182;28;20196;-82
2023/03/16 04:45:54;;;;;;;14.53;6.77;;;-0.20;99.90;;;;;;5013192;28;20303;-81
2023/03/16 04:48:19;;;;;;;14.87;5.83;;;-0.20;99.90;;;;;;5012415;28;20220;-82
2023/03/16 04:50:47;;;;;;;20.43;7.70;;;-0.30;99.90;;;;;;5013099;28;20192;-82
2023/03/16 04:53:13;;;;;;;20.33;5.70;;;-0.20;99.90;;;;;;5012890;28;20181;-83
2023/03/16 04:55:40;;;;;;;19.47;6.60;;;-0.30;99.90;;;;;;5012833;28;20212;-82
2023/03/16 04:58:06;;;;;;;11.50;6.03;;;-0.30;99.90;;;;;;5012767;28;20630;-83
2023/03/16 05:00:32;;;;;;;11.40;6.40;;;-0.30;99.90;;;;;;5011731;28;20382;-82
2023/03/16 05:02:58;;;;;;;22.00;8.33;;;-0.40;99.90;;;;;;4999780;28;20609;-82
2023/03/16 05:05:23;;;;;;;24.23;8.30;;;-0.40;99.90;;;;;;5007383;28;20222;-82
2023/03/16 05:07:49;;;;;;;13.93;6.13;;;-0.40;99.90;;;;;;4991736;28;20250;-82
2023/03/16 05:10:20;;;;;;;10.80;5.43;;;-0.40;99.90;;;;;;5011015;28;20188;-83
2023/03/16 05:12:46;;;;;;;8.20;4.77;;;-0.40;99.90;;;;;;5012674;28;20213;-83
2023/03/16 05:15:12;;;;;;;17.20;8.07;;;-0.30;99.90;;;;;;4995444;28;20223;-82
2023/03/16 05:17:41;;;;;;;9.13;4.73;;;-0.60;99.90;;;;;;5011652;28;20735;-83
2023/03/16 05:20:11;;;;;;;20.10;7.77;;;-0.10;99.90;;;;;;4995198;28;20196;-83
2023/03/16 05:22:42;;;;;;;16.47;7.13;;;-0.40;99.90;;;;;;5002249;28;20647;-82
2023/03/16 05:25:13;;;;;;;18.50;6.13;;;-0.30;99.90;;;;;;4995613;28;20207;-82
2023/03/16 05:27:49;;;;;;;16.43;7.07;;;-0.30;99.90;;;;;;4995459;28;20217;-83
2023/03/16 05:30:16;;;;;;;22.10;7.67;;;-0.20;99.90;;;;;;5011726;28;20273;-82
2023/03/16 05:32:42;;;;;;;5.90;4.03;;;-0.20;99.90;;;;;;4991777;28;20190;-82
2023/03/16 05:35:12;;;;;;;13.17;6.60;;;-0.20;99.90;;;;;;4995021;28;20303;-82
2023/03/16 05:37:38;;;;;;;11.00;5.17;;;-0.20;99.90;;;;;;5012906;28;20174;-83
2023/03/16 05:40:27;;;;;;;13.67;5.97;;;-0.10;99.90;;;;;;4995952;28;20284;-83
2023/03/16 05:42:56;;;;;;;9.13;5.57;;;-0.10;99.90;;;;;;4991887;28;20198;-82
2023/03/16 05:45:23;;;;;;;6.73;4.97;;;-0.10;99.90;;;;;;4991810;28;20213;-82
2023/03/16 05:47:48;;;;;;;12.37;6.33;;;0.00;99.90;;;;;;4993264;28;20270;-83
2023/03/16 05:50:15;;;;;;;20.93;5.37;;;0.10;99.90;;;;;;4992301;28;20232;-82
2023/03/16 05:52:43;;;;;;;9.03;3.63;;;0.20;99.90;;;;;;4984070;28;20206;-83
2023/03/16 05:55:10;;;;;;;7.20;4.53;;;0.20;99.90;;;;;;5006955;28;20260;-83
2023/03/16 05:57:36;;;;;;;12.30;6.20;;;0.20;99.90;;;;;;4994668;28;20189;-83
2023/03/16 06:00:12;;;;;;;11.63;4.77;;;0.30;99.90;;;;;;4994676;28;20185;-82
2023/03/16 06:02:37;;;;;;;7.87;4.03;;;0.30;99.90;;;;;;4987998;28;20246;-82
2023/03/16 06:05:04;;;;;;;7.70;4.27;;;0.30;99.90;;;;;;4993297;28;20668;-83
2023/03/16 06:07:30;;;;;;;14.27;4.80;;;0.30;99.90;;;;;;4990637;28;20206;-84
2023/03/16 06:09:55;;;;;;;6.63;3.50;;;0.30;99.90;;;;;;4993397;28;20197;-83
2023/03/16 06:12:21;;;;;;;7.70;4.77;;;0.40;99.90;;;;;;5005908;28;20193;-83
2023/03/16 06:14:46;;;;;;;19.87;4.70;;;0.50;99.90;;;;;;4990105;28;20201;-83
2023/03/16 06:17:12;;;;;;;10.57;4.87;;;0.70;99.90;;;;;;4988674;28;20248;-82
2023/03/16 06:19:38;;;;;;;7.20;4.80;;;0.80;99.90;;;;;;4996754;28;20202;-84
2023/03/16 06:22:07;;;;;;;12.70;5.30;;;0.90;99.90;;;;;;4996671;28;20205;-83
2023/03/16 06:24:33;;;;;;;10.93;3.97;;;1.00;99.90;;;;;;4994278;28;20224;-84
2023/03/16 06:27:01;;;;;;;10.20;4.33;;;1.10;99.90;;;;;;4998849;28;20190;-83
2023/03/16 06:29:28;;;;;;;11.13;4.47;;;1.30;99.90;;;;;;5000425;28;20854;-83
2023/03/16 06:31:54;;;;;;;9.47;4.97;;;1.40;99.90;;;;;;4976247;28;20194;-83
2023/03/16 06:34:20;;;;;;;9.57;4.27;;;1.50;99.90;;;;;;4996295;28;20193;-82
2023/03/16 06:36:48;;;;;;;11.67;3.67;;;1.50;99.90;;;;;;4989329;28;20266;-83
2023/03/16 06:39:14;;;;;;;13.10;5.17;;;1.60;99.90;;;;;;4976864;28;20190;-84
2023/03/16 06:41:41;;;;;;;11.70;4.50;;;1.60;99.90;;;;;;4994620;28;20193;-83
2023/03/16 06:44:08;;;;;;;6.53;3.27;;;1.60;99.90;;;;;;4990162;28;20194;-84
2023/03/16 06:46:34;;;;;;;7.77;4.03;;;1.60;99.90;;;;;;4990724;28;20190;-83
2023/03/16 06:49:03;;;;;;;8.53;3.80;;;1.60;99.90;;;;;;4982761;28;20196;-83
2023/03/16 06:51:30;;;;;;;6.40;4.40;;;1.50;99.90;;;;;;4994715;28;20192;-84
2023/03/16 06:53:56;;;;;;;6.30;3.73;;;1.60;99.90;;;;;;4990065;28;20183;-84
2023/03/16 06:56:22;;;;;;;10.43;3.30;;;1.70;99.90;;;;;;4993786;28;20204;-85
2023/03/16 06:58:48;;;;;;;4.07;3.43;;;1.80;99.90;;;;;;4991316;28;20194;-84
2023/03/16 07:01:33;;;;;;;10.03;3.77;;;2.00;99.90;;;;;;4980859;28;20209;-84
2023/03/16 07:03:59;;;;;;;5.77;3.73;;;2.10;99.90;;;;;;4986714;28;20194;-85
2023/03/16 07:06:25;;;;;;;5.27;3.53;;;2.10;99.90;;;;;;4999377;28;20286;-86
2023/03/16 07:08:50;;;;;;;4.07;3.10;;;2.20;99.90;;;;;;4991011;28;20272;-84
2023/03/16 07:11:16;;;;;;;14.20;3.90;;;2.30;99.90;;;;;;4994353;28;20711;-84
2023/03/16 07:13:43;;;;;;;14.97;3.27;;;2.30;99.90;;;;;;4977255;28;20289;-85
2023/03/16 07:16:09;;;;;;;3.97;3.00;;;2.30;99.90;;;;;;5009846;28;20243;-86
2023/03/16 07:18:36;;;;;;;6.03;3.33;;;2.40;99.90;;;;;;5012543;28;20195;-85
2023/03/16 07:21:05;;;;;;;7.73;3.60;;;2.50;99.90;;;;;;5009353;28;20186;-85
2023/03/16 07:23:31;;;;;;;4.27;2.67;;;2.60;99.90;;;;;;4988689;28;20206;-85
2023/03/16 07:25:57;;;;;;;8.23;2.93;;;2.60;99.90;;;;;;4995372;28;20208;-84
2023/03/16 07:28:23;;;;;;;10.00;4.17;;;2.80;99.90;;;;;;4996035;28;20266;-85
2023/03/16 07:30:50;;;;;;;8.13;3.33;;;2.80;99.90;;;;;;5012287;28;20187;-85
2023/03/16 07:33:17;;;;;;;4.77;3.30;;;2.80;99.90;;;;;;4990471;28;20191;-86
2023/03/16 07:35:48;;;;;;;4.37;2.50;;;2.70;99.90;;;;;;5013090;28;20542;-85
2023/03/16 07:38:14;;;;;;;4.53;2.67;;;2.80;99.90;;;;;;4980777;28;20280;-85
2023/03/16 07:40:40;;;;;;;2.30;2.07;;;3.00;99.90;;;;;;5013921;28;20189;-84
2023/03/16 07:43:09;;;;;;;3.93;2.83;;;3.20;99.90;;;;;;4980249;28;20191;-83
2023/03/16 07:45:35;;;;;;;5.63;3.23;;;3.30;99.90;;;;;;5009896;28;20299;-84
2023/03/16 07:48:03;;;;;;;7.23;3.93;;;3.40;99.90;;;;;;5011973;28;20610;-83
2023/03/16 07:50:29;;;;;;;4.17;3.03;;;3.50;99.90;;;;;;4979757;28;20204;-84
2023/03/16 07:52:55;;;;;;;5.20;3.67;;;3.40;99.90;;;;;;4993707;28;20641;-84
2023/03/16 07:55:21;;;;;;;13.77;5.50;;;3.50;99.90;;;;;;4976528;28;20208;-83
2023/03/16 07:57:47;;;;;;;7.87;2.77;;;3.50;99.90;;;;;;5013399;28;20194;-84
2023/03/16 08:00:13;;;;;;;13.68;3.53;;;3.60;99.90;;;;;;5005031;28;20436;-84
2023/03/16 08:02:40;;;;;;;5.33;2.70;;;3.70;99.90;;;;;;5004198;28;20186;-84
2023/03/16 08:05:09;;;;;;;9.10;3.80;;;3.80;99.90;;;;;;4995822;28;20963;-84
2023/03/16 08:07:34;;;;;;;10.40;2.87;;;3.70;99.90;;;;;;5008411;28;20192;-84
2023/03/16 08:10:00;;;;;;;6.23;3.60;;;3.60;99.90;;;;;;4996006;28;20204;-87
2023/03/16 08:12:26;;;;;;;3.47;3.00;;;3.60;99.90;;;;;;4973158;28;20232;-85
2023/03/16 08:14:53;;;;;;;3.83;3.00;;;3.50;99.90;;;;;;4978029;28;20680;-83
2023/03/16 08:17:20;;;;;;;4.70;3.00;;;3.60;99.90;;;;;;4989315;28;20228;-84
2023/03/16 08:19:46;;;;;;;4.43;2.70;;;3.50;99.90;;;;;;4978784;28;20192;-85
2023/03/16 08:22:11;;;;;;;15.90;3.50;;;3.60;99.90;;;;;;4972422;28;20210;-84
2023/03/16 08:24:37;;;;;;;4.33;2.43;;;3.80;99.90;;;;;;5012562;28;20223;-83
2023/03/16 08:27:03;;;;;;;6.10;2.63;;;3.80;99.90;;;;;;4981538;28;20245;-84
2023/03/16 08:29:29;;;;;;;6.73;1.73;;;3.90;99.90;;;;;;5015878;28;20192;-84
2023/03/16 08:31:56;;;;;;;8.60;3.40;;;4.00;99.90;;;;;;5012460;28;20653;-83
2023/03/16 08:34:23;;;;;;;5.50;2.20;;;4.00;99.90;;;;;;5011232;28;20245;-84
2023/03/16 08:36:49;;;;;;;8.67;1.90;;;4.00;99.90;;;;;;5007342;28;20637;-83
2023/03/16 08:39:15;;;;;;;4.17;2.03;;;4.20;99.90;;;;;;5009703;28;20181;-84
2023/03/16 08:41:42;;;;;;;4.63;2.23;;;4.30;99.90;;;;;;4983839;28;20696;-83
2023/03/16 08:44:09;;;;;;;1.23;1.10;;;4.40;99.90;;;;;;5012195;28;20676;-83
2023/03/16 08:46:35;;;;;;;5.07;2.63;;;4.60;99.40;;;;;;5012710;28;20212;-83
2023/03/16 08:49:01;;;;;;;1.27;1.23;;;4.60;97.20;;;;;;4994099;28;20196;-83
2023/03/16 08:51:28;;;;;;;1.17;1.03;;;4.50;97.30;;;;;;4994522;28;20189;-83
2023/03/16 08:53:54;;;;;;;8.67;2.33;;;4.60;97.30;;;;;;5004542;28;20196;-84
2023/03/16 08:56:20;;;;;;;1.60;1.23;;;4.70;96.20;;;;;;5009420;28;20732;-82
2023/03/16 08:58:46;;;;;;;1.63;1.30;;;4.80;95.70;;;;;;5012246;28;20223;-83
2023/03/16 09:01:14;;;;;;;1.40;1.23;;;4.90;95.10;;;;;;5005559;28;20271;-84
2023/03/16 09:03:41;;;;;;;5.40;1.80;;;5.00;94.50;;;;;;5005109;28;20189;-84
2023/03/16 09:06:12;;;;;;;1.27;1.03;;;5.00;94.00;;;;;;4990318;28;20244;-83
2023/03/16 09:08:39;;;;;;;3.37;2.03;;;5.10;94.40;;;;;;5003655;28;20185;-83
2023/03/16 09:11:11;;;;;;;4.37;1.73;;;5.30;93.50;;;;;;5003431;28;20189;-84
2023/03/16 09:13:38;;;;;;;3.50;1.77;;;5.20;93.60;;;;;;5003881;28;20208;-84
2023/03/16 09:16:05;;;;;;;10.03;1.83;;;5.20;94.50;;;;;;5012759;28;20189;-83
2023/03/16 09:18:31;;;;;;;1.60;1.37;;;5.30;93.90;;;;;;5023853;28;20197;-83
2023/03/16 09:21:02;;;;;;;4.15;2.20;;;5.50;93.70;;;;;;5001006;28;20448;-84
2023/03/16 09:23:29;;;;;;;4.40;2.40;;;5.70;92.90;;;;;;4989613;28;20181;-84
2023/03/16 09:26:00;;;;;;;7.43;2.03;;;5.80;90.90;;;;;;5012086;28;20209;-83
2023/03/16 09:28:26;;;;;;;1.40;1.30;;;5.80;88.60;;;;;;5017257;28;20188;-84
2023/03/16 09:30:53;;;;;;;3.07;1.67;;;5.60;89.30;;;;;;5015348;28;20274;-84
2023/03/16 09:33:20;;;;;;;3.40;1.37;;;5.40;88.80;;;;;;5033108;28;20173;-84
2023/03/16 09:35:46;;;;;;;2.63;1.93;;;5.10;91.10;;;;;;5015688;28;20182;-83
2023/03/16 09:38:12;;;;;;;1.47;1.00;;;5.10;92.20;;;;;;5015924;28;20173;-83
2023/03/16 09:40:40;;;;;;;5.10;2.40;;;5.10;92.20;;;;;;5015756;28;20191;-83
2023/03/16 09:43:50;;;;;;;4.87;1.70;;;5.20;90.90;;;;;;5015962;28;20589;-85
2023/03/16 09:46:16;;;;;;;1.90;1.23;;;;;;;;;;5032501;28;20208;-85
2023/03/16 09:48:42;;;;;;;2.20;1.03;;;5.50;83.80;;;;;;5010169;28;20218;-85
2023/03/16 09:51:28;;;;;;;3.30;1.57;;;5.60;84.10;;;;;;5022381;28;20239;-84
2023/03/16 09:54:00;;;;;;;1.67;1.30;;;5.60;85.50;;;;;;5005246;28;20559;-84
2023/03/16 09:56:39;;;;;;;7.63;1.70;;;5.60;85.60;;;;;;5019331;28;20174;-85
2023/03/16 09:59:14;;;;;;;2.47;1.80;;;5.70;86.60;;;;;;5020310;28;20172;-84
2023/03/16 10:01:59;;;;;;;6.03;1.90;;;5.80;83.40;;;;;;5020419;28;20188;-84
2023/03/16 10:04:44;;;;;;;1.73;1.23;;;5.80;81.20;;;;;;5038016;28;20200;-84
2023/03/16 10:07:18;;;;;;;4.50;1.90;;;6.10;81.50;;;;;;5041210;28;20228;-84
2023/03/16 10:10:14;;;;;;;3.13;1.33;;;6.40;79.10;;;;;;5041357;28;20153;-83
2023/03/16 10:12:50;;;;;;;4.80;2.03;;;6.60;76.90;;;;;;5034727;28;20211;-84
2023/03/16 10:15:25;;;;;;;8.10;1.60;;;6.40;75.70;;;;;;5043737;28;20176;-82
2023/03/16 10:18:09;;;;;;;1.80;1.37;;;6.40;76.60;;;;;;5054611;28;20229;-83
2023/03/16 10:20:35;;;;;;;3.40;1.83;;;6.60;75.50;;;;;;5036831;28;20165;-83
2023/03/16 10:23:16;;;;;;;3.50;1.80;;;6.30;76.80;;;;;;5035506;28;20189;-83
2023/03/16 10:25:49;;;;;;;2.53;1.43;;;6.20;79.30;;;;;;5015307;28;20209;-84
2023/03/16 10:28:21;;;;;;;2.37;1.60;;;5.70;73.90;;;;;;4998824;28;20208;-83
2023/03/16 10:30:49;;;;;;;3.40;1.30;;;5.30;78.60;;;;;;4997988;28;20212;-84
2023/03/16 10:33:24;;;;;;;2.93;2.10;;;5.30;80.50;;;;;;4996127;28;20175;-84
2023/03/16 10:36:11;;;;;;;3.30;2.20;;;5.40;79.70;;;;;;4996613;28;20631;-83
2023/03/16 10:38:37;;;;;;;3.17;1.93;;;5.70;78.80;;;;;;5000938;28;20193;-84
2023/03/16 10:41:21;;;;;;;4.90;2.43;;;6.00;78.00;;;;;;5015657;28;20188;-83
2023/03/16 10:43:49;;;;;;;2.37;1.50;;;5.90;77.40;;;;;;4996539;28;20178;-83
2023/03/16 10:46:16;;;;;;;2.30;1.70;;;5.60;72.10;;;;;;5029767;28;20578;-84
2023/03/16 10:49:00;;;;;;;3.67;1.80;;;5.40;72.20;;;;;;5018335;28;20521;-84
2023/03/16 10:51:32;;;;;;;3.33;1.23;;;5.40;73.20;;;;;;5035662;28;20633;-83
2023/03/16 10:54:13;;;;;;;6.40;2.30;;;5.90;76.50;;;;;;5035271;28;20173;-83
2023/03/16 10:56:39;;;;;;;1.90;1.33;;;6.60;72.90;;;;;;5035689;28;20192;-84
2023/03/16 10:59:32;;;;;;;4.40;1.30;;;6.80;69.70;;;;;;5027110;28;20213;-87
2023/03/16 11:01:58;;;;;;;2.33;1.47;;;7.00;66.60;;;;;;4987955;28;20212;-84
2023/03/16 11:04:24;;;;;;;1.93;1.40;;;7.10;65.90;;;;;;5012060;28;20256;-84
2023/03/16 11:06:55;;;;;;;3.33;1.33;;;7.10;67.20;;;;;;5015525;28;20182;-84
2023/03/16 11:09:31;;;;;;;5.70;1.50;;;7.20;67.30;;;;;;5015657;28;20177;-84
2023/03/16 11:11:58;;;;;;;1.43;1.30;;;7.00;67.70;;;;;;5006538;28;20190;-83
2023/03/16 11:14:27;;;;;;;5.37;1.80;;;7.00;67.90;;;;;;4996541;28;20248;-83
2023/03/16 11:17:31;;;;;;;4.17;2.23;;;6.80;68.10;;;;;;5010850;28;20247;-84
2023/03/16 11:20:11;;;;;;;2.63;1.90;;;6.40;69.00;;;;;;5002966;28;20189;-84
2023/03/16 11:22:38;;;;;;;4.20;2.00;;;6.00;71.00;;;;;;5015747;28;20259;-83
2023/03/16 11:25:05;;;;;;;6.27;2.03;;;5.80;72.00;;;;;;5015007;28;20303;-83
2023/03/16 11:27:58;;;;;;;1.87;1.57;;;5.80;71.80;;;;;;5014159;28;20185;-84
2023/03/16 11:30:35;;;;;;;3.47;2.17;;;6.00;73.10;;;;;;5011348;28;20182;-83
2023/03/16 11:33:01;;;;;;;1.73;1.50;;;5.80;71.30;;;;;;4996150;28;20192;-84
2023/03/16 11:35:33;;;;;;;2.17;1.43;;;5.80;73.00;;;;;;4997774;28;20668;-83
2023/03/16 11:38:05;;;;;;;6.67;2.10;;;6.10;72.70;;;;;;5014948;28;20260;-84
2023/03/16 11:41:05;;;;;;;5.90;1.37;;;6.40;71.10;;;;;;5015026;28;20181;-83
2023/03/16 11:43:46;;;;;;;2.50;2.20;;;6.40;71.10;;;;;;4982745;28;20197;-83
2023/03/16 11:46:15;;;;;;;3.80;2.47;;;6.40;72.10;;;;;;5014835;28;20760;-83
2023/03/16 11:49:05;;;;;;;6.17;2.17;;;6.40;72.40;;;;;;5014713;28;20181;-83
2023/03/16 11:51:58;;;;;;;6.57;2.57;;;6.50;73.40;;;;;;5014074;28;20189;-83
2023/03/16 11:54:54;;;;;;;5.80;2.33;;;6.20;71.50;;;;;;5014365;28;20174;-82
2023/03/16 11:58:11;;;;;;;3.70;2.10;;;6.50;71.30;;;;;;5014653;28;20753;-83
2023/03/16 12:00:54;;;;;;;4.93;2.80;;;6.60;69.70;;;;;;4981852;28;20197;-83
2023/03/16 12:03:52;;;;;;;4.10;2.43;;;6.40;70.20;;;;;;5014753;28;20177;-83
2023/03/16 12:06:27;;;;;;;4.97;2.47;;;6.10;69.50;;;;;;5013043;28;20244;-83
2023/03/16 12:09:23;;;;;;;4.33;1.90;;;6.30;69.30;;;;;;5013423;28;20188;-82
2023/03/16 12:12:41;;;;;;;2.37;2.17;;;6.50;69.60;;;;;;5013071;28;20266;-83
2023/03/16 12:15:28;;;;;;;5.17;1.37;;;7.00;67.50;;;;;;5014440;28;20235;-83
2023/03/16 12:18:00;;;;;;;3.50;1.40;;;7.20;67.60;;;;;;4996803;28;20693;-83
2023/03/16 12:20:30;;;;;;;2.40;1.50;;;7.00;66.40;;;;;;4996652;28;20177;-83
2023/03/16 12:23:08;;;;;;;3.40;1.70;;;6.60;69.80;;;;;;4996944;28;20174;-83
2023/03/16 12:25:41;;;;;;;5.50;1.87;;;6.50;70.80;;;;;;5014248;28;20212;-83
2023/03/16 12:28:32;;;;;;;2.30;1.83;;;6.10;71.70;;;;;;5013901;28;20177;-82
2023/03/16 12:31:18;;;;;;;2.77;2.10;;;6.00;72.00;;;;;;5014640;28;20280;-83
2023/03/16 12:34:23;;;;;;;5.93;1.47;;;6.10;72.40;;;;;;5014213;28;20181;-82
2023/03/16 12:37:04;;;;;;;1.80;1.20;;;6.00;71.10;;;;;;4974967;28;20197;-83
2023/03/16 12:39:33;;;;;;;2.23;1.67;;;6.20;70.50;;;;;;5013902;28;20183;-83
2023/03/16 12:42:40;;;;;;;2.93;2.00;;;6.80;67.80;;;;;;5014040;28;20193;-84
2023/03/16 12:45:45;;;;;;;1.83;1.50;;;7.00;66.50;;;;;;5008224;28;20219;-83
2023/03/16 12:48:27;;;;;;;1.53;1.40;;;7.00;66.30;;;;;;5013681;28;20634;-84
2023/03/16 12:51:02;;;;;;;3.70;1.47;;;6.50;68.40;;;;;;5013884;28;20687;-84
2023/03/16 12:53:52;;;;;;;4.80;1.43;;;6.30;68.90;;;;;;4989930;28;20636;-84
2023/03/16 12:56:43;;;;;;;4.70;1.80;;;6.10;69.40;;;;;;4993012;28;20202;-83
2023/03/16 12:59:19;;;;;;;3.97;1.70;;;6.00;69.70;;;;;;4991929;28;20665;-84
2023/03/16 13:01:50;;;;;;;3.13;2.23;;;6.10;70.70;;;;;;4996488;28;20192;-84
2023/03/16 13:04:29;;;;;;;3.33;1.93;;;6.00;70.00;;;;;;5008448;28;20189;-83
2023/03/16 13:07:15;;;;;;;2.70;1.40;;;6.00;69.30;;;;;;4996387;28;20189;-84
2023/03/16 13:09:45;;;;;;;1.97;1.10;;;6.30;69.10;;;;;;4979320;28;20218;-84
2023/03/16 13:12:40;;;;;;;2.67;1.90;;;6.50;68.60;;;;;;5013280;28;20181;-83